Etusivu
METAR-TAF:

METAR-TAF

Lentoasemat :

Baker City, Oregon, Yhdysvallat

Leveyspiiri: 44-50-14N, Pituuspiiri: 117-48-33W, korkeus merenpinnasta: 1028 m

Tämänhetkinen sää

Tämä raportti tehtiin 33 minuuttia sitten, kello 10.53 UTC
tyyntä
Lämpötila -2°C
Kosteus 86%
Ilmanpaine 1017 hPa
Näkyvyys: 16.1 km
selkeää

METAR: KBKE 071053Z AUTO 00000KT 10SM CLR M02/M04 A3003 RMK AO2 SLP177 T10221044

Aika: 04:26 (11:26 UTC)

Sääennuste

Tämä raportti tehtiin 6 tuntia ja 6 minuuttia sitten, kello 05.20 UTC
Ennuste voimassa 07. päivästä klo 06 UTC - 08. päivään klo 06 UTC
Tuuli 5 kn eri suunnista
Näkyvyys: 10 km
selkeää
From 07. päivästä klo 2100 UTC
Tuuli 7 kn luoteesta
Näkyvyys: 10 km
Muutamia pilviä 25000 ft:n korkeudessa

TAF: KBKE 070520Z 0706/0806 VRB05KT P6SM SKC FM072100 32007KT P6SM FEW250

Säähavainnot ja -ennusteet yli 4000 lentoasemalta (METAR- ja TAF-raportit).

Käytössä olevat sääasemat on merkitty karttaan keltaisilla ja punaisilla pisteillä.

Aseta hiiri pisteen päälle nähdäksesi sääaseman nimen.

Klikkaa sitten nähdäksesi säähavainnot ja -ennusteet.

Kartan vaihtaminen: klikkaa mustalla rastilla varustettuja vihreitä pisteitä, niin voit zoomata sisään; viivalla varustettua vihreää pistettä, niin voit zoomata ulos tai vihreitä nuolia, niin pääset viereisille kartoille.


METAR-TAF: